sensor_id;sensor_type;location;lat;lon;timestamp;pressure;altitude;pressure_sealevel;temperature;humidity
22000;BME280;11164;48.818;2.322;2022-07-06T00:00:57;101669.75;;;18.66;33.66
22000;BME280;11164;48.818;2.322;2022-07-06T00:03:23;101672.69;;;18.46;34.08
22000;BME280;11164;48.818;2.322;2022-07-06T00:05:48;101666.78;;;18.49;33.99
22000;BME280;11164;48.818;2.322;2022-07-06T00:08:13;101671.41;;;18.49;34.23
22000;BME280;11164;48.818;2.322;2022-07-06T00:10:39;101663.00;;;18.50;34.42
22000;BME280;11164;48.818;2.322;2022-07-06T00:13:04;101674.16;;;18.49;34.10
22000;BME280;11164;48.818;2.322;2022-07-06T00:15:29;101670.38;;;18.50;34.55
22000;BME280;11164;48.818;2.322;2022-07-06T00:17:55;101666.50;;;18.58;34.12
22000;BME280;11164;48.818;2.322;2022-07-06T00:20:20;101666.88;;;18.61;34.42
22000;BME280;11164;48.818;2.322;2022-07-06T00:22:45;101667.09;;;18.60;34.33
22000;BME280;11164;48.818;2.322;2022-07-06T00:25:11;101668.78;;;18.61;34.25
22000;BME280;11164;48.818;2.322;2022-07-06T00:27:36;101654.34;;;18.53;34.79
22000;BME280;11164;48.818;2.322;2022-07-06T00:30:02;101656.94;;;18.48;34.64
22000;BME280;11164;48.818;2.322;2022-07-06T00:32:27;101669.03;;;18.34;35.01
22000;BME280;11164;48.818;2.322;2022-07-06T00:34:53;101661.91;;;18.33;35.12
22000;BME280;11164;48.818;2.322;2022-07-06T00:37:18;101661.16;;;18.44;34.97
22000;BME280;11164;48.818;2.322;2022-07-06T00:39:43;101661.63;;;18.41;35.01
22000;BME280;11164;48.818;2.322;2022-07-06T00:42:09;101663.94;;;18.37;35.32
22000;BME280;11164;48.818;2.322;2022-07-06T00:44:34;101667.69;;;18.18;35.29
22000;BME280;11164;48.818;2.322;2022-07-06T00:46:59;101660.94;;;18.27;35.49
22000;BME280;11164;48.818;2.322;2022-07-06T00:49:25;101665.25;;;18.35;35.37
22000;BME280;11164;48.818;2.322;2022-07-06T00:52:09;101658.44;;;18.44;35.06
22000;BME280;11164;48.818;2.322;2022-07-06T00:54:36;101659.66;;;18.23;35.53
22000;BME280;11164;48.818;2.322;2022-07-06T00:57:01;101652.66;;;18.34;35.44
22000;BME280;11164;48.818;2.322;2022-07-06T00:59:27;101657.88;;;18.35;35.82
22000;BME280;11164;48.818;2.322;2022-07-06T01:01:53;101656.38;;;18.40;35.42
22000;BME280;11164;48.818;2.322;2022-07-06T01:04:18;101655.53;;;18.39;35.42
22000;BME280;11164;48.818;2.322;2022-07-06T01:06:45;101662.34;;;18.30;35.75
22000;BME280;11164;48.818;2.322;2022-07-06T01:09:12;101661.91;;;18.33;35.58
22000;BME280;11164;48.818;2.322;2022-07-06T01:11:37;101663.72;;;18.39;35.80
22000;BME280;11164;48.818;2.322;2022-07-06T01:14:06;101655.75;;;18.37;35.81
22000;BME280;11164;48.818;2.322;2022-07-06T01:16:36;101658.50;;;18.37;35.84
22000;BME280;11164;48.818;2.322;2022-07-06T01:19:02;101660.94;;;18.27;36.11
22000;BME280;11164;48.818;2.322;2022-07-06T01:21:27;101666.47;;;18.39;35.84
22000;BME280;11164;48.818;2.322;2022-07-06T01:23:52;101665.09;;;18.23;36.27
22000;BME280;11164;48.818;2.322;2022-07-06T01:26:20;101660.22;;;18.07;36.45
22000;BME280;11164;48.818;2.322;2022-07-06T01:28:49;101666.66;;;17.87;36.94
22000;BME280;11164;48.818;2.322;2022-07-06T01:31:21;101674.75;;;17.75;36.96
22000;BME280;11164;48.818;2.322;2022-07-06T01:33:49;101653.53;;;17.77;36.72
22000;BME280;11164;48.818;2.322;2022-07-06T01:36:15;101664.00;;;18.06;36.37
22000;BME280;11164;48.818;2.322;2022-07-06T01:38:51;101656.19;;;18.09;38.24
22000;BME280;11164;48.818;2.322;2022-07-06T01:41:17;101662.22;;;17.93;36.73
22000;BME280;11164;48.818;2.322;2022-07-06T01:43:43;101663.22;;;17.98;36.60
22000;BME280;11164;48.818;2.322;2022-07-06T01:46:09;101643.97;;;17.93;36.75
22000;BME280;11164;48.818;2.322;2022-07-06T01:48:35;101648.97;;;17.96;36.69
22000;BME280;11164;48.818;2.322;2022-07-06T01:51:00;101663.94;;;18.12;36.77
22000;BME280;11164;48.818;2.322;2022-07-06T01:53:26;101654.94;;;18.12;36.35
22000;BME280;11164;48.818;2.322;2022-07-06T01:55:51;101656.94;;;17.98;36.86
22000;BME280;11164;48.818;2.322;2022-07-06T01:58:16;101655.69;;;17.94;37.12
22000;BME280;11164;48.818;2.322;2022-07-06T02:00:42;101657.00;;;17.91;37.12
22000;BME280;11164;48.818;2.322;2022-07-06T02:03:07;101652.34;;;17.92;37.11
22000;BME280;11164;48.818;2.322;2022-07-06T02:05:33;101651.84;;;17.76;37.15
22000;BME280;11164;48.818;2.322;2022-07-06T02:07:58;101654.97;;;17.80;37.44
22000;BME280;11164;48.818;2.322;2022-07-06T02:10:23;101665.59;;;17.63;37.33
22000;BME280;11164;48.818;2.322;2022-07-06T02:12:49;101663.69;;;17.63;37.29
22000;BME280;11164;48.818;2.322;2022-07-06T02:15:14;101655.94;;;17.60;37.47
22000;BME280;11164;48.818;2.322;2022-07-06T02:17:40;101664.09;;;17.67;37.43
22000;BME280;11164;48.818;2.322;2022-07-06T02:20:06;101654.31;;;17.85;37.33
22000;BME280;11164;48.818;2.322;2022-07-06T02:22:31;101653.75;;;18.01;37.13
22000;BME280;11164;48.818;2.322;2022-07-06T02:24:57;101654.53;;;17.83;37.19
22000;BME280;11164;48.818;2.322;2022-07-06T02:27:22;101654.38;;;17.46;37.99
22000;BME280;11164;48.818;2.322;2022-07-06T02:29:47;101653.03;;;17.55;37.83
22000;BME280;11164;48.818;2.322;2022-07-06T02:32:13;101648.81;;;17.59;37.53
22000;BME280;11164;48.818;2.322;2022-07-06T02:34:38;101648.31;;;17.37;38.03
22000;BME280;11164;48.818;2.322;2022-07-06T02:37:03;101639.25;;;17.43;37.93
22000;BME280;11164;48.818;2.322;2022-07-06T02:39:30;101634.97;;;17.61;37.64
22000;BME280;11164;48.818;2.322;2022-07-06T02:41:55;101637.47;;;17.62;37.75
22000;BME280;11164;48.818;2.322;2022-07-06T02:44:21;101640.09;;;17.76;37.61
22000;BME280;11164;48.818;2.322;2022-07-06T02:46:46;101637.25;;;17.64;37.91
22000;BME280;11164;48.818;2.322;2022-07-06T02:49:11;101633.75;;;17.57;38.00
22000;BME280;11164;48.818;2.322;2022-07-06T02:51:37;101659.91;;;17.65;37.79
22000;BME280;11164;48.818;2.322;2022-07-06T02:54:02;101644.34;;;17.72;37.66
22000;BME280;11164;48.818;2.322;2022-07-06T02:56:28;101652.09;;;17.68;37.46
22000;BME280;11164;48.818;2.322;2022-07-06T02:58:53;101656.56;;;17.62;37.90
22000;BME280;11164;48.818;2.322;2022-07-06T03:01:18;101652.59;;;17.58;38.05
22000;BME280;11164;48.818;2.322;2022-07-06T03:03:44;101653.25;;;17.54;37.98
22000;BME280;11164;48.818;2.322;2022-07-06T03:06:09;101655.81;;;17.49;38.20
22000;BME280;11164;48.818;2.322;2022-07-06T03:08:35;101666.09;;;17.40;38.47
22000;BME280;11164;48.818;2.322;2022-07-06T03:11:00;101667.34;;;17.44;38.29
22000;BME280;11164;48.818;2.322;2022-07-06T03:13:26;101660.00;;;17.44;38.18
22000;BME280;11164;48.818;2.322;2022-07-06T03:15:52;101658.88;;;17.59;38.12
22000;BME280;11164;48.818;2.322;2022-07-06T03:18:17;101663.91;;;17.62;37.72
22000;BME280;11164;48.818;2.322;2022-07-06T03:20:43;101669.59;;;17.60;37.72
22000;BME280;11164;48.818;2.322;2022-07-06T03:23:08;101666.25;;;17.58;38.30
22000;BME280;11164;48.818;2.322;2022-07-06T03:25:33;101669.84;;;17.52;38.28
22000;BME280;11164;48.818;2.322;2022-07-06T03:27:59;101665.84;;;17.55;38.06
22000;BME280;11164;48.818;2.322;2022-07-06T03:30:24;101664.13;;;17.60;38.33
22000;BME280;11164;48.818;2.322;2022-07-06T03:32:49;101666.44;;;17.63;38.21
22000;BME280;11164;48.818;2.322;2022-07-06T03:35:15;101671.69;;;17.58;38.07
22000;BME280;11164;48.818;2.322;2022-07-06T03:37:40;101672.63;;;17.39;38.53
22000;BME280;11164;48.818;2.322;2022-07-06T03:40:06;101677.00;;;17.40;38.52
22000;BME280;11164;48.818;2.322;2022-07-06T03:42:31;101677.22;;;17.38;38.69
22000;BME280;11164;48.818;2.322;2022-07-06T03:44:56;101688.81;;;17.34;38.68
22000;BME280;11164;48.818;2.322;2022-07-06T03:47:22;101672.94;;;17.11;38.87
22000;BME280;11164;48.818;2.322;2022-07-06T03:49:47;101676.81;;;16.90;39.00
22000;BME280;11164;48.818;2.322;2022-07-06T03:52:12;101683.94;;;16.91;39.15
22000;BME280;11164;48.818;2.322;2022-07-06T03:54:38;101685.66;;;16.78;39.64
22000;BME280;11164;48.818;2.322;2022-07-06T03:57:03;101685.06;;;16.69;39.67
22000;BME280;11164;48.818;2.322;2022-07-06T03:59:28;101683.56;;;16.67;39.86
22000;BME280;11164;48.818;2.322;2022-07-06T04:01:54;101677.72;;;16.70;39.70
22000;BME280;11164;48.818;2.322;2022-07-06T04:04:19;101678.50;;;16.84;39.51
22000;BME280;11164;48.818;2.322;2022-07-06T04:06:45;101682.06;;;16.84;39.69
22000;BME280;11164;48.818;2.322;2022-07-06T04:09:10;101675.56;;;16.85;39.61
22000;BME280;11164;48.818;2.322;2022-07-06T04:11:36;101693.34;;;16.95;39.60
22000;BME280;11164;48.818;2.322;2022-07-06T04:14:01;101691.50;;;16.82;39.87
22000;BME280;11164;48.818;2.322;2022-07-06T04:16:26;101694.66;;;16.79;40.02
22000;BME280;11164;48.818;2.322;2022-07-06T04:18:52;101676.91;;;16.63;40.26
22000;BME280;11164;48.818;2.322;2022-07-06T04:21:18;101699.06;;;16.80;39.86
22000;BME280;11164;48.818;2.322;2022-07-06T04:23:44;101684.34;;;16.94;39.91
22000;BME280;11164;48.818;2.322;2022-07-06T04:26:09;101692.94;;;16.91;39.80
22000;BME280;11164;48.818;2.322;2022-07-06T04:28:35;101687.28;;;16.86;39.91
22000;BME280;11164;48.818;2.322;2022-07-06T04:31:00;101693.38;;;16.88;40.17
22000;BME280;11164;48.818;2.322;2022-07-06T04:33:25;101698.78;;;16.95;40.12
22000;BME280;11164;48.818;2.322;2022-07-06T04:35:51;101694.16;;;17.02;39.80
22000;BME280;11164;48.818;2.322;2022-07-06T04:38:16;101699.00;;;16.93;40.15
22000;BME280;11164;48.818;2.322;2022-07-06T04:40:41;101694.44;;;16.80;40.60
22000;BME280;11164;48.818;2.322;2022-07-06T04:43:07;101686.69;;;16.84;40.19
22000;BME280;11164;48.818;2.322;2022-07-06T04:45:32;101684.78;;;16.91;40.45
22000;BME280;11164;48.818;2.322;2022-07-06T04:47:58;101688.88;;;17.14;40.02
22000;BME280;11164;48.818;2.322;2022-07-06T04:50:23;101693.84;;;17.30;39.55
22000;BME280;11164;48.818;2.322;2022-07-06T04:52:48;101686.88;;;17.48;39.88
22000;BME280;11164;48.818;2.322;2022-07-06T04:55:14;101684.16;;;17.48;39.55
22000;BME280;11164;48.818;2.322;2022-07-06T04:57:40;101688.63;;;17.29;39.98
22000;BME280;11164;48.818;2.322;2022-07-06T05:00:05;101701.28;;;17.03;40.48
22000;BME280;11164;48.818;2.322;2022-07-06T05:02:31;101694.09;;;17.22;40.44
22000;BME280;11164;48.818;2.322;2022-07-06T05:04:56;101690.81;;;17.52;39.92
22000;BME280;11164;48.818;2.322;2022-07-06T05:07:22;101688.03;;;17.65;39.79
22000;BME280;11164;48.818;2.322;2022-07-06T05:09:47;101684.72;;;17.88;39.18
22000;BME280;11164;48.818;2.322;2022-07-06T05:12:12;101692.63;;;17.96;39.29
22000;BME280;11164;48.818;2.322;2022-07-06T05:14:38;101696.03;;;18.17;39.39
22000;BME280;11164;48.818;2.322;2022-07-06T05:17:03;101694.53;;;18.46;38.95
22000;BME280;11164;48.818;2.322;2022-07-06T05:19:28;101696.91;;;18.61;38.80
22000;BME280;11164;48.818;2.322;2022-07-06T05:21:54;101697.00;;;18.73;38.63
22000;BME280;11164;48.818;2.322;2022-07-06T05:24:19;101693.88;;;18.51;39.14
22000;BME280;11164;48.818;2.322;2022-07-06T05:26:45;101699.88;;;18.60;38.77
22000;BME280;11164;48.818;2.322;2022-07-06T05:29:10;101695.25;;;18.79;38.72
22000;BME280;11164;48.818;2.322;2022-07-06T05:31:36;101696.03;;;18.67;39.10
22000;BME280;11164;48.818;2.322;2022-07-06T05:34:01;101686.47;;;18.77;39.04
22000;BME280;11164;48.818;2.322;2022-07-06T05:36:27;101696.25;;;19.03;38.72
22000;BME280;11164;48.818;2.322;2022-07-06T05:38:52;101704.91;;;19.00;38.65
22000;BME280;11164;48.818;2.322;2022-07-06T05:41:17;101698.78;;;19.23;38.39
22000;BME280;11164;48.818;2.322;2022-07-06T05:43:43;101699.69;;;19.17;38.10
22000;BME280;11164;48.818;2.322;2022-07-06T05:46:08;101696.41;;;19.26;38.41
22000;BME280;11164;48.818;2.322;2022-07-06T05:48:33;101702.72;;;19.08;38.71
22000;BME280;11164;48.818;2.322;2022-07-06T05:51:17;101701.00;;;19.14;38.44
22000;BME280;11164;48.818;2.322;2022-07-06T05:53:42;101705.13;;;19.35;38.13
22000;BME280;11164;48.818;2.322;2022-07-06T05:56:08;101717.13;;;19.34;38.07
22000;BME280;11164;48.818;2.322;2022-07-06T05:58:34;101710.47;;;19.11;38.30
22000;BME280;11164;48.818;2.322;2022-07-06T06:00:59;101731.09;;;19.26;38.13
22000;BME280;11164;48.818;2.322;2022-07-06T06:03:24;101726.50;;;19.26;38.24
22000;BME280;11164;48.818;2.322;2022-07-06T06:05:50;101724.44;;;19.40;38.02
22000;BME280;11164;48.818;2.322;2022-07-06T06:08:16;101724.78;;;19.74;37.37
22000;BME280;11164;48.818;2.322;2022-07-06T06:10:41;101713.13;;;20.09;36.86
22000;BME280;11164;48.818;2.322;2022-07-06T06:13:07;101727.53;;;20.04;36.99
22000;BME280;11164;48.818;2.322;2022-07-06T06:15:33;101732.75;;;19.94;37.26
22000;BME280;11164;48.818;2.322;2022-07-06T06:17:58;101722.97;;;19.98;37.22
22000;BME280;11164;48.818;2.322;2022-07-06T06:20:24;101722.78;;;20.12;36.90
22000;BME280;11164;48.818;2.322;2022-07-06T06:22:51;101720.63;;;20.14;37.07
22000;BME280;11164;48.818;2.322;2022-07-06T06:25:19;101724.47;;;20.36;36.56
22000;BME280;11164;48.818;2.322;2022-07-06T06:27:45;101714.84;;;20.57;36.03
22000;BME280;11164;48.818;2.322;2022-07-06T06:30:12;101722.50;;;20.67;36.08
22000;BME280;11164;48.818;2.322;2022-07-06T06:32:38;101721.50;;;20.85;35.82
22000;BME280;11164;48.818;2.322;2022-07-06T06:35:05;101722.16;;;21.16;35.51
22000;BME280;11164;48.818;2.322;2022-07-06T06:37:32;101710.63;;;21.14;35.31
22000;BME280;11164;48.818;2.322;2022-07-06T06:39:57;101714.41;;;21.13;35.20
22000;BME280;11164;48.818;2.322;2022-07-06T06:42:23;101708.59;;;20.97;35.56
22000;BME280;11164;48.818;2.322;2022-07-06T06:44:48;101716.94;;;21.03;35.49
22000;BME280;11164;48.818;2.322;2022-07-06T06:47:14;101718.09;;;21.18;35.15
22000;BME280;11164;48.818;2.322;2022-07-06T06:49:39;101723.22;;;21.27;35.08
22000;BME280;11164;48.818;2.322;2022-07-06T06:52:04;101730.19;;;21.46;34.68
22000;BME280;11164;48.818;2.322;2022-07-06T06:54:30;101725.72;;;21.57;34.25
22000;BME280;11164;48.818;2.322;2022-07-06T06:56:55;101734.00;;;21.74;34.29
22000;BME280;11164;48.818;2.322;2022-07-06T06:59:20;101729.56;;;21.56;34.23
22000;BME280;11164;48.818;2.322;2022-07-06T07:01:46;101718.78;;;21.66;34.24
22000;BME280;11164;48.818;2.322;2022-07-06T07:04:11;101739.00;;;21.77;33.93
22000;BME280;11164;48.818;2.322;2022-07-06T07:06:37;101733.34;;;21.67;33.99
22000;BME280;11164;48.818;2.322;2022-07-06T07:09:02;101733.13;;;21.56;34.25
22000;BME280;11164;48.818;2.322;2022-07-06T07:11:28;101731.78;;;21.88;33.76
22000;BME280;11164;48.818;2.322;2022-07-06T07:13:53;101731.13;;;21.81;33.67
22000;BME280;11164;48.818;2.322;2022-07-06T07:16:20;101738.41;;;22.04;33.22
22000;BME280;11164;48.818;2.322;2022-07-06T07:18:45;101745.59;;;22.05;33.15
22000;BME280;11164;48.818;2.322;2022-07-06T07:21:10;101735.63;;;21.87;33.44
22000;BME280;11164;48.818;2.322;2022-07-06T07:23:36;101737.19;;;21.83;33.13
22000;BME280;11164;48.818;2.322;2022-07-06T07:26:01;101741.09;;;21.70;33.25
22000;BME280;11164;48.818;2.322;2022-07-06T07:28:26;101733.69;;;21.99;32.99
22000;BME280;11164;48.818;2.322;2022-07-06T07:30:52;101739.69;;;22.13;32.79
22000;BME280;11164;48.818;2.322;2022-07-06T07:33:17;101740.28;;;22.32;32.25
22000;BME280;11164;48.818;2.322;2022-07-06T07:35:42;101744.25;;;22.24;32.57
22000;BME280;11164;48.818;2.322;2022-07-06T07:38:08;101726.44;;;22.10;32.59
22000;BME280;11164;48.818;2.322;2022-07-06T07:40:33;101743.44;;;22.24;32.45
22000;BME280;11164;48.818;2.322;2022-07-06T07:43:00;101733.75;;;22.38;31.86
22000;BME280;11164;48.818;2.322;2022-07-06T07:45:25;101730.69;;;22.35;31.96
22000;BME280;11164;48.818;2.322;2022-07-06T07:47:51;101729.69;;;22.41;32.07
22000;BME280;11164;48.818;2.322;2022-07-06T07:50:16;101731.25;;;22.37;31.81
22000;BME280;11164;48.818;2.322;2022-07-06T07:52:43;101728.25;;;22.38;31.55
22000;BME280;11164;48.818;2.322;2022-07-06T07:55:08;101724.69;;;22.38;31.47
22000;BME280;11164;48.818;2.322;2022-07-06T07:57:34;101734.66;;;22.78;30.86
22000;BME280;11164;48.818;2.322;2022-07-06T07:59:59;101726.00;;;22.69;31.26
22000;BME280;11164;48.818;2.322;2022-07-06T08:02:24;101724.63;;;22.89;31.07
22000;BME280;11164;48.818;2.322;2022-07-06T08:04:50;101728.78;;;22.91;30.34
22000;BME280;11164;48.818;2.322;2022-07-06T08:07:15;101723.50;;;22.67;30.94
22000;BME280;11164;48.818;2.322;2022-07-06T08:09:41;101727.63;;;22.65;31.01
22000;BME280;11164;48.818;2.322;2022-07-06T08:12:06;101722.31;;;22.80;30.46
22000;BME280;11164;48.818;2.322;2022-07-06T08:14:32;101718.13;;;22.95;30.16
22000;BME280;11164;48.818;2.322;2022-07-06T08:16:57;101722.91;;;22.82;30.21
22000;BME280;11164;48.818;2.322;2022-07-06T08:19:23;101715.50;;;22.66;30.40
22000;BME280;11164;48.818;2.322;2022-07-06T08:21:48;101725.16;;;23.08;29.96
22000;BME280;11164;48.818;2.322;2022-07-06T08:24:13;101725.47;;;23.11;30.26
22000;BME280;11164;48.818;2.322;2022-07-06T08:26:39;101720.88;;;22.95;30.42
22000;BME280;11164;48.818;2.322;2022-07-06T08:29:05;101732.75;;;23.00;30.21
22000;BME280;11164;48.818;2.322;2022-07-06T08:31:30;101730.41;;;23.09;29.81
22000;BME280;11164;48.818;2.322;2022-07-06T08:33:56;101730.22;;;22.77;30.23
22000;BME280;11164;48.818;2.322;2022-07-06T08:36:23;101728.00;;;22.40;30.64
22000;BME280;11164;48.818;2.322;2022-07-06T08:38:49;101727.63;;;22.87;30.09
22000;BME280;11164;48.818;2.322;2022-07-06T08:41:15;101730.19;;;22.55;30.56
22000;BME280;11164;48.818;2.322;2022-07-06T08:43:41;101729.16;;;22.61;30.20
22000;BME280;11164;48.818;2.322;2022-07-06T08:46:08;101720.09;;;22.60;30.19
22000;BME280;11164;48.818;2.322;2022-07-06T08:48:36;101727.19;;;22.95;30.17
22000;BME280;11164;48.818;2.322;2022-07-06T08:51:02;101730.53;;;23.19;29.59
22000;BME280;11164;48.818;2.322;2022-07-06T08:53:28;101734.63;;;22.95;30.16
22000;BME280;11164;48.818;2.322;2022-07-06T08:55:54;101729.03;;;22.90;29.77
22000;BME280;11164;48.818;2.322;2022-07-06T08:58:20;101724.59;;;23.28;29.48
22000;BME280;11164;48.818;2.322;2022-07-06T09:00:48;101724.47;;;23.67;29.28
22000;BME280;11164;48.818;2.322;2022-07-06T09:03:14;101718.50;;;23.75;28.86
22000;BME280;11164;48.818;2.322;2022-07-06T09:05:40;101698.72;;;23.78;28.81
22000;BME280;11164;48.818;2.322;2022-07-06T09:08:07;101720.16;;;23.76;28.87
22000;BME280;11164;48.818;2.322;2022-07-06T09:10:32;101707.44;;;23.97;28.39
22000;BME280;11164;48.818;2.322;2022-07-06T09:13:05;101711.00;;;24.30;27.73
22000;BME280;11164;48.818;2.322;2022-07-06T09:15:32;101718.13;;;24.26;28.39
22000;BME280;11164;48.818;2.322;2022-07-06T09:17:58;101704.88;;;24.17;28.48
22000;BME280;11164;48.818;2.322;2022-07-06T09:20:23;101716.63;;;23.80;28.49
22000;BME280;11164;48.818;2.322;2022-07-06T09:22:49;101713.50;;;23.45;28.78
22000;BME280;11164;48.818;2.322;2022-07-06T09:25:15;101708.31;;;23.75;28.68
22000;BME280;11164;48.818;2.322;2022-07-06T09:27:46;101703.88;;;24.02;27.23
22000;BME280;11164;48.818;2.322;2022-07-06T09:30:20;101700.72;;;24.20;27.82
22000;BME280;11164;48.818;2.322;2022-07-06T09:32:48;101705.75;;;24.28;27.68
22000;BME280;11164;48.818;2.322;2022-07-06T09:35:26;101702.97;;;24.23;26.47
22000;BME280;11164;48.818;2.322;2022-07-06T09:40:34;101703.13;;;23.52;28.30
22000;BME280;11164;48.818;2.322;2022-07-06T09:43:16;101703.28;;;23.40;26.59
22000;BME280;11164;48.818;2.322;2022-07-06T09:45:46;101696.38;;;23.65;27.49
22000;BME280;11164;48.818;2.322;2022-07-06T09:48:16;101704.53;;;23.54;27.85
22000;BME280;11164;48.818;2.322;2022-07-06T09:50:47;101702.34;;;23.56;27.48
22000;BME280;11164;48.818;2.322;2022-07-06T09:53:14;101704.78;;;23.80;27.36
22000;BME280;11164;48.818;2.322;2022-07-06T09:55:47;101714.03;;;23.96;26.32
22000;BME280;11164;48.818;2.322;2022-07-06T09:58:13;101706.00;;;23.62;27.61
22000;BME280;11164;48.818;2.322;2022-07-06T10:00:38;101703.75;;;23.59;27.58
22000;BME280;11164;48.818;2.322;2022-07-06T10:03:04;101715.06;;;23.63;27.65
22000;BME280;11164;48.818;2.322;2022-07-06T10:05:30;101713.81;;;23.75;27.51
22000;BME280;11164;48.818;2.322;2022-07-06T10:07:59;101712.09;;;23.96;27.13
22000;BME280;11164;48.818;2.322;2022-07-06T10:10:27;101707.75;;;24.01;27.22
22000;BME280;11164;48.818;2.322;2022-07-06T10:12:57;101712.06;;;23.91;27.33
22000;BME280;11164;48.818;2.322;2022-07-06T10:15:27;101712.50;;;24.10;26.95
22000;BME280;11164;48.818;2.322;2022-07-06T10:17:55;101698.25;;;24.56;26.22
22000;BME280;11164;48.818;2.322;2022-07-06T10:20:20;101699.78;;;24.84;26.14
22000;BME280;11164;48.818;2.322;2022-07-06T10:22:50;101692.81;;;24.71;26.34
22000;BME280;11164;48.818;2.322;2022-07-06T10:25:16;101689.84;;;24.41;26.78
22000;BME280;11164;48.818;2.322;2022-07-06T10:27:42;101691.63;;;24.57;26.55
22000;BME280;11164;48.818;2.322;2022-07-06T10:30:09;101698.69;;;24.85;26.19
22000;BME280;11164;48.818;2.322;2022-07-06T10:32:35;101698.06;;;24.73;26.32
22000;BME280;11164;48.818;2.322;2022-07-06T10:35:02;101691.75;;;24.78;25.88
22000;BME280;11164;48.818;2.322;2022-07-06T10:37:28;101693.78;;;25.03;25.57
22000;BME280;11164;48.818;2.322;2022-07-06T10:39:54;101690.78;;;25.15;25.98
22000;BME280;11164;48.818;2.322;2022-07-06T10:42:48;101690.03;;;25.24;25.60
22000;BME280;11164;48.818;2.322;2022-07-06T10:45:19;101695.13;;;25.94;24.64
22000;BME280;11164;48.818;2.322;2022-07-06T10:47:47;101703.06;;;25.50;25.34
22000;BME280;11164;48.818;2.322;2022-07-06T10:50:12;101693.91;;;25.34;25.66
22000;BME280;11164;48.818;2.322;2022-07-06T10:52:48;101690.34;;;25.48;25.06
22000;BME280;11164;48.818;2.322;2022-07-06T10:55:35;101709.78;;;25.06;25.57
22000;BME280;11164;48.818;2.322;2022-07-06T10:58:02;101691.34;;;25.11;25.99
22000;BME280;11164;48.818;2.322;2022-07-06T11:00:50;101703.03;;;24.76;25.60
22000;BME280;11164;48.818;2.322;2022-07-06T11:03:42;101691.88;;;25.08;25.32
22000;BME280;11164;48.818;2.322;2022-07-06T11:06:19;101695.81;;;25.28;25.86
22000;BME280;11164;48.818;2.322;2022-07-06T11:08:58;101697.78;;;25.33;25.47
22000;BME280;11164;48.818;2.322;2022-07-06T11:16:21;101674.56;;;24.17;26.72
22000;BME280;11164;48.818;2.322;2022-07-06T11:19:09;101672.41;;;24.72;26.37
22000;BME280;11164;48.818;2.322;2022-07-06T11:21:44;101662.41;;;25.24;25.74
22000;BME280;11164;48.818;2.322;2022-07-06T11:24:12;101668.75;;;25.20;26.10
22000;BME280;11164;48.818;2.322;2022-07-06T11:26:38;101669.88;;;24.61;26.47
22000;BME280;11164;48.818;2.322;2022-07-06T11:29:04;101665.94;;;24.51;26.54
22000;BME280;11164;48.818;2.322;2022-07-06T11:31:35;101664.00;;;24.52;26.56
22000;BME280;11164;48.818;2.322;2022-07-06T11:34:03;101672.44;;;24.78;26.41
22000;BME280;11164;48.818;2.322;2022-07-06T11:36:29;101669.03;;;24.60;26.27
22000;BME280;11164;48.818;2.322;2022-07-06T11:38:55;101663.69;;;24.96;25.95
22000;BME280;11164;48.818;2.322;2022-07-06T11:41:20;101660.22;;;25.32;25.94
22000;BME280;11164;48.818;2.322;2022-07-06T11:43:47;101656.13;;;25.44;25.66
22000;BME280;11164;48.818;2.322;2022-07-06T11:46:26;101664.41;;;25.39;25.55
22000;BME280;11164;48.818;2.322;2022-07-06T11:49:01;101661.09;;;24.69;26.70
22000;BME280;11164;48.818;2.322;2022-07-06T11:51:32;101650.34;;;24.72;26.51
22000;BME280;11164;48.818;2.322;2022-07-06T11:54:01;101652.84;;;24.79;26.25
22000;BME280;11164;48.818;2.322;2022-07-06T11:56:28;101637.34;;;24.63;26.28
22000;BME280;11164;48.818;2.322;2022-07-06T11:58:56;101641.25;;;24.72;26.19
22000;BME280;11164;48.818;2.322;2022-07-06T12:01:23;101635.41;;;24.63;26.39
22000;BME280;11164;48.818;2.322;2022-07-06T12:03:49;101641.63;;;24.96;26.14
22000;BME280;11164;48.818;2.322;2022-07-06T12:06:22;101633.34;;;25.01;25.68
22000;BME280;11164;48.818;2.322;2022-07-06T12:08:51;101630.16;;;25.51;25.46
22000;BME280;11164;48.818;2.322;2022-07-06T12:11:21;101629.34;;;25.45;25.37
22000;BME280;11164;48.818;2.322;2022-07-06T12:13:51;101635.72;;;25.76;24.94
22000;BME280;11164;48.818;2.322;2022-07-06T12:16:17;101632.69;;;25.83;25.02
22000;BME280;11164;48.818;2.322;2022-07-06T12:18:46;101636.78;;;25.60;25.08
22000;BME280;11164;48.818;2.322;2022-07-06T12:21:15;101614.34;;;25.05;25.46
22000;BME280;11164;48.818;2.322;2022-07-06T12:23:49;101635.38;;;25.37;25.36
22000;BME280;11164;48.818;2.322;2022-07-06T12:26:18;101643.41;;;25.54;25.44
22000;BME280;11164;48.818;2.322;2022-07-06T12:28:44;101634.59;;;25.67;25.11
22000;BME280;11164;48.818;2.322;2022-07-06T12:31:10;101624.13;;;26.00;24.63
22000;BME280;11164;48.818;2.322;2022-07-06T12:33:37;101633.47;;;26.19;24.71
22000;BME280;11164;48.818;2.322;2022-07-06T12:36:13;101625.28;;;26.74;23.36
22000;BME280;11164;48.818;2.322;2022-07-06T12:38:47;101615.69;;;27.16;22.21
22000;BME280;11164;48.818;2.322;2022-07-06T12:41:33;101618.63;;;27.35;22.56
22000;BME280;11164;48.818;2.322;2022-07-06T12:44:07;101625.38;;;26.59;23.60
22000;BME280;11164;48.818;2.322;2022-07-06T12:46:39;101623.81;;;25.71;25.10
22000;BME280;11164;48.818;2.322;2022-07-06T12:49:22;101621.34;;;26.05;24.41
22000;BME280;11164;48.818;2.322;2022-07-06T12:54:34;101620.81;;;26.94;23.92
22000;BME280;11164;48.818;2.322;2022-07-06T12:57:04;101616.75;;;26.60;24.56
22000;BME280;11164;48.818;2.322;2022-07-06T12:59:33;101608.59;;;27.00;23.81